sensor_id;sensor_type;location;lat;lon;timestamp;P1;durP1;ratioP1;P2;durP2;ratioP2
10269;SDS011;70826;50.930;5.334;2024-02-23T00:00:15;41.30;;;39.22;;
10269;SDS011;70826;50.930;5.334;2024-02-23T00:02:43;40.78;;;38.70;;
10269;SDS011;70826;50.930;5.334;2024-02-23T00:05:08;40.15;;;38.08;;
10269;SDS011;70826;50.930;5.334;2024-02-23T00:07:34;37.38;;;35.53;;
10269;SDS011;70826;50.930;5.334;2024-02-23T00:10:00;38.60;;;36.65;;
10269;SDS011;70826;50.930;5.334;2024-02-23T00:12:25;38.78;;;36.83;;
10269;SDS011;70826;50.930;5.334;2024-02-23T00:14:51;38.05;;;36.00;;
10269;SDS011;70826;50.930;5.334;2024-02-23T00:17:19;38.60;;;36.65;;
10269;SDS011;70826;50.930;5.334;2024-02-23T00:19:45;41.00;;;38.95;;
10269;SDS011;70826;50.930;5.334;2024-02-23T00:22:12;41.85;;;39.75;;
10269;SDS011;70826;50.930;5.334;2024-02-23T00:24:38;41.67;;;39.47;;
10269;SDS011;70826;50.930;5.334;2024-02-23T00:27:05;41.47;;;39.33;;
10269;SDS011;70826;50.930;5.334;2024-02-23T00:29:31;40.33;;;38.25;;
10269;SDS011;70826;50.930;5.334;2024-02-23T00:31:57;39.88;;;37.85;;
10269;SDS011;70826;50.930;5.334;2024-02-23T00:34:22;39.75;;;37.75;;
10269;SDS011;70826;50.930;5.334;2024-02-23T00:36:49;42.05;;;39.90;;
10269;SDS011;70826;50.930;5.334;2024-02-23T00:39:17;40.78;;;38.72;;
10269;SDS011;70826;50.930;5.334;2024-02-23T00:41:43;40.45;;;38.40;;
10269;SDS011;70826;50.930;5.334;2024-02-23T00:44:08;40.80;;;38.75;;
10269;SDS011;70826;50.930;5.334;2024-02-23T00:46:34;41.38;;;39.28;;
10269;SDS011;70826;50.930;5.334;2024-02-23T00:49:00;40.28;;;38.25;;
10269;SDS011;70826;50.930;5.334;2024-02-23T00:51:25;42.83;;;40.58;;
10269;SDS011;70826;50.930;5.334;2024-02-23T00:53:51;40.40;;;38.33;;
10269;SDS011;70826;50.930;5.334;2024-02-23T00:56:17;41.08;;;38.95;;
10269;SDS011;70826;50.930;5.334;2024-02-23T00:58:43;42.15;;;40.00;;
10269;SDS011;70826;50.930;5.334;2024-02-23T01:01:08;43.03;;;40.78;;
10269;SDS011;70826;50.930;5.334;2024-02-23T01:03:34;43.03;;;40.83;;
10269;SDS011;70826;50.930;5.334;2024-02-23T01:06:00;42.78;;;40.58;;
10269;SDS011;70826;50.930;5.334;2024-02-23T01:08:25;39.95;;;37.95;;
10269;SDS011;70826;50.930;5.334;2024-02-23T01:10:51;42.72;;;40.53;;
10269;SDS011;70826;50.930;5.334;2024-02-23T01:13:17;45.30;;;42.92;;
10269;SDS011;70826;50.930;5.334;2024-02-23T01:15:42;43.30;;;41.05;;
10269;SDS011;70826;50.930;5.334;2024-02-23T01:18:10;43.25;;;41.05;;
10269;SDS011;70826;50.930;5.334;2024-02-23T01:20:36;44.30;;;42.05;;
10269;SDS011;70826;50.930;5.334;2024-02-23T01:23:01;42.08;;;39.92;;
10269;SDS011;70826;50.930;5.334;2024-02-23T01:25:27;44.70;;;42.38;;
10269;SDS011;70826;50.930;5.334;2024-02-23T01:27:53;40.30;;;38.25;;
10269;SDS011;70826;50.930;5.334;2024-02-23T01:30:18;43.30;;;41.10;;
10269;SDS011;70826;50.930;5.334;2024-02-23T01:32:46;41.83;;;39.72;;
10269;SDS011;70826;50.930;5.334;2024-02-23T01:35:12;43.10;;;40.83;;
10269;SDS011;70826;50.930;5.334;2024-02-23T01:37:37;43.22;;;41.03;;
10269;SDS011;70826;50.930;5.334;2024-02-23T01:40:03;42.67;;;40.50;;
10269;SDS011;70826;50.930;5.334;2024-02-23T01:42:32;42.33;;;40.17;;
10269;SDS011;70826;50.930;5.334;2024-02-23T01:44:58;44.50;;;42.25;;
10269;SDS011;70826;50.930;5.334;2024-02-23T01:47:25;42.25;;;40.10;;
10269;SDS011;70826;50.930;5.334;2024-02-23T01:49:51;42.08;;;39.92;;
10269;SDS011;70826;50.930;5.334;2024-02-23T01:52:18;43.35;;;41.15;;
10269;SDS011;70826;50.930;5.334;2024-02-23T01:54:45;43.53;;;41.30;;
10269;SDS011;70826;50.930;5.334;2024-02-23T01:57:10;43.00;;;40.83;;
10269;SDS011;70826;50.930;5.334;2024-02-23T01:59:36;45.03;;;42.72;;
10269;SDS011;70826;50.930;5.334;2024-02-23T02:02:06;42.28;;;40.13;;
10269;SDS011;70826;50.930;5.334;2024-02-23T02:04:31;44.97;;;42.63;;
10269;SDS011;70826;50.930;5.334;2024-02-23T02:06:58;43.45;;;41.25;;
10269;SDS011;70826;50.930;5.334;2024-02-23T02:09:25;43.97;;;41.72;;
10269;SDS011;70826;50.930;5.334;2024-02-23T02:11:51;41.67;;;39.58;;
10269;SDS011;70826;50.930;5.334;2024-02-23T02:14:19;45.72;;;43.35;;
10269;SDS011;70826;50.930;5.334;2024-02-23T02:16:44;43.28;;;41.10;;
10269;SDS011;70826;50.930;5.334;2024-02-23T02:19:10;44.08;;;41.78;;
10269;SDS011;70826;50.930;5.334;2024-02-23T02:21:37;43.20;;;40.90;;
10269;SDS011;70826;50.930;5.334;2024-02-23T02:24:03;42.03;;;39.85;;
10269;SDS011;70826;50.930;5.334;2024-02-23T02:26:29;44.28;;;42.03;;
10269;SDS011;70826;50.930;5.334;2024-02-23T02:28:57;45.35;;;43.05;;
10269;SDS011;70826;50.930;5.334;2024-02-23T02:31:23;45.70;;;43.35;;
10269;SDS011;70826;50.930;5.334;2024-02-23T02:33:49;43.63;;;41.38;;
10269;SDS011;70826;50.930;5.334;2024-02-23T02:36:14;47.08;;;44.58;;
10269;SDS011;70826;50.930;5.334;2024-02-23T02:38:42;43.80;;;41.58;;
10269;SDS011;70826;50.930;5.334;2024-02-23T02:41:08;46.17;;;43.80;;
10269;SDS011;70826;50.930;5.334;2024-02-23T02:43:34;43.63;;;41.38;;
10269;SDS011;70826;50.930;5.334;2024-02-23T02:46:00;44.97;;;42.55;;
10269;SDS011;70826;50.930;5.334;2024-02-23T02:48:25;43.88;;;41.65;;
10269;SDS011;70826;50.930;5.334;2024-02-23T02:50:51;49.10;;;46.58;;
10269;SDS011;70826;50.930;5.334;2024-02-23T02:53:17;44.35;;;42.05;;
10269;SDS011;70826;50.930;5.334;2024-02-23T02:55:43;46.47;;;44.08;;
10269;SDS011;70826;50.930;5.334;2024-02-23T02:58:10;45.08;;;42.75;;
10269;SDS011;70826;50.930;5.334;2024-02-23T03:00:36;45.95;;;43.58;;
10269;SDS011;70826;50.930;5.334;2024-02-23T03:03:02;44.97;;;42.70;;
10269;SDS011;70826;50.930;5.334;2024-02-23T03:05:27;45.88;;;43.53;;
10269;SDS011;70826;50.930;5.334;2024-02-23T03:07:53;46.25;;;43.70;;
10269;SDS011;70826;50.930;5.334;2024-02-23T03:10:19;42.58;;;40.35;;
10269;SDS011;70826;50.930;5.334;2024-02-23T03:12:44;46.92;;;44.45;;
10269;SDS011;70826;50.930;5.334;2024-02-23T03:15:10;43.70;;;41.47;;
10269;SDS011;70826;50.930;5.334;2024-02-23T03:17:36;46.20;;;43.78;;
10269;SDS011;70826;50.930;5.334;2024-02-23T03:20:02;44.50;;;42.25;;
10269;SDS011;70826;50.930;5.334;2024-02-23T03:22:31;45.40;;;43.10;;
10269;SDS011;70826;50.930;5.334;2024-02-23T03:24:56;46.63;;;44.22;;
10269;SDS011;70826;50.930;5.334;2024-02-23T03:27:27;46.22;;;43.83;;
10269;SDS011;70826;50.930;5.334;2024-02-23T03:29:54;45.92;;;43.50;;
10269;SDS011;70826;50.930;5.334;2024-02-23T03:32:20;45.15;;;42.85;;
10269;SDS011;70826;50.930;5.334;2024-02-23T03:34:45;46.67;;;44.28;;
10269;SDS011;70826;50.930;5.334;2024-02-23T03:37:11;45.40;;;43.03;;
10269;SDS011;70826;50.930;5.334;2024-02-23T03:39:36;45.50;;;43.15;;
10269;SDS011;70826;50.930;5.334;2024-02-23T03:42:03;44.80;;;42.50;;
10269;SDS011;70826;50.930;5.334;2024-02-23T03:44:29;43.83;;;41.47;;
10269;SDS011;70826;50.930;5.334;2024-02-23T03:46:54;43.45;;;41.08;;
10269;SDS011;70826;50.930;5.334;2024-02-23T03:49:20;44.10;;;41.80;;
10269;SDS011;70826;50.930;5.334;2024-02-23T03:51:46;43.80;;;41.53;;
10269;SDS011;70826;50.930;5.334;2024-02-23T03:54:12;45.53;;;43.20;;
10269;SDS011;70826;50.930;5.334;2024-02-23T03:56:39;43.72;;;41.50;;
10269;SDS011;70826;50.930;5.334;2024-02-23T03:59:06;43.47;;;41.22;;
10269;SDS011;70826;50.930;5.334;2024-02-23T04:01:34;43.47;;;41.22;;
10269;SDS011;70826;50.930;5.334;2024-02-23T04:04:01;44.50;;;42.17;;
10269;SDS011;70826;50.930;5.334;2024-02-23T04:06:26;43.90;;;41.65;;
10269;SDS011;70826;50.930;5.334;2024-02-23T04:08:54;44.22;;;41.97;;
10269;SDS011;70826;50.930;5.334;2024-02-23T04:11:20;48.55;;;45.97;;
10269;SDS011;70826;50.930;5.334;2024-02-23T04:13:45;44.60;;;42.30;;
10269;SDS011;70826;50.930;5.334;2024-02-23T04:16:11;44.60;;;42.25;;
10269;SDS011;70826;50.930;5.334;2024-02-23T04:18:36;45.63;;;43.28;;
10269;SDS011;70826;50.930;5.334;2024-02-23T04:21:02;47.58;;;45.00;;
10269;SDS011;70826;50.930;5.334;2024-02-23T04:23:30;46.58;;;44.15;;
10269;SDS011;70826;50.930;5.334;2024-02-23T04:25:56;46.63;;;44.22;;
10269;SDS011;70826;50.930;5.334;2024-02-23T04:28:21;45.72;;;43.38;;
10269;SDS011;70826;50.930;5.334;2024-02-23T04:30:48;46.92;;;44.53;;
10269;SDS011;70826;50.930;5.334;2024-02-23T04:33:14;47.67;;;45.13;;
10269;SDS011;70826;50.930;5.334;2024-02-23T04:35:39;49.47;;;46.85;;
10269;SDS011;70826;50.930;5.334;2024-02-23T04:38:05;46.92;;;44.50;;
10269;SDS011;70826;50.930;5.334;2024-02-23T04:40:31;48.40;;;45.85;;
10269;SDS011;70826;50.930;5.334;2024-02-23T04:42:56;47.72;;;45.25;;
10269;SDS011;70826;50.930;5.334;2024-02-23T04:45:22;49.03;;;46.47;;
10269;SDS011;70826;50.930;5.334;2024-02-23T04:47:49;51.40;;;48.60;;
10269;SDS011;70826;50.930;5.334;2024-02-23T04:50:15;48.20;;;45.70;;
10269;SDS011;70826;50.930;5.334;2024-02-23T04:52:41;48.90;;;46.35;;
10269;SDS011;70826;50.930;5.334;2024-02-23T04:55:06;45.67;;;43.33;;
10269;SDS011;70826;50.930;5.334;2024-02-23T04:57:32;49.83;;;47.25;;
10269;SDS011;70826;50.930;5.334;2024-02-23T04:59:58;45.83;;;43.50;;
10269;SDS011;70826;50.930;5.334;2024-02-23T05:02:24;46.30;;;43.85;;
10269;SDS011;70826;50.930;5.334;2024-02-23T05:04:49;49.03;;;46.33;;
10269;SDS011;70826;50.930;5.334;2024-02-23T05:07:15;48.25;;;45.75;;
10269;SDS011;70826;50.930;5.334;2024-02-23T05:09:41;49.38;;;46.78;;
10269;SDS011;70826;50.930;5.334;2024-02-23T05:12:07;46.08;;;43.67;;
10269;SDS011;70826;50.930;5.334;2024-02-23T05:14:36;48.78;;;46.15;;
10269;SDS011;70826;50.930;5.334;2024-02-23T05:17:01;45.45;;;43.03;;
10269;SDS011;70826;50.930;5.334;2024-02-23T05:19:28;48.22;;;45.72;;
10269;SDS011;70826;50.930;5.334;2024-02-23T05:21:54;46.25;;;43.85;;
10269;SDS011;70826;50.930;5.334;2024-02-23T05:24:19;48.63;;;45.88;;
10269;SDS011;70826;50.930;5.334;2024-02-23T05:26:45;46.35;;;43.90;;
10269;SDS011;70826;50.930;5.334;2024-02-23T05:29:11;48.30;;;45.78;;
10269;SDS011;70826;50.930;5.334;2024-02-23T05:31:48;47.03;;;44.53;;
10269;SDS011;70826;50.930;5.334;2024-02-23T05:34:17;47.47;;;44.95;;
10269;SDS011;70826;50.930;5.334;2024-02-23T05:36:45;46.72;;;44.33;;
10269;SDS011;70826;50.930;5.334;2024-02-23T05:39:12;46.83;;;44.42;;
10269;SDS011;70826;50.930;5.334;2024-02-23T05:41:40;45.50;;;43.08;;
10269;SDS011;70826;50.930;5.334;2024-02-23T05:44:08;51.70;;;48.95;;
10269;SDS011;70826;50.930;5.334;2024-02-23T05:46:34;47.17;;;44.72;;
10269;SDS011;70826;50.930;5.334;2024-02-23T05:49:01;46.92;;;44.50;;
10269;SDS011;70826;50.930;5.334;2024-02-23T05:51:29;47.30;;;44.85;;
10269;SDS011;70826;50.930;5.334;2024-02-23T05:53:55;49.20;;;46.65;;
10269;SDS011;70826;50.930;5.334;2024-02-23T05:56:21;50.72;;;48.03;;
10269;SDS011;70826;50.930;5.334;2024-02-23T05:58:48;47.63;;;45.10;;
10269;SDS011;70826;50.930;5.334;2024-02-23T06:01:14;50.20;;;47.60;;
10269;SDS011;70826;50.930;5.334;2024-02-23T06:03:40;47.97;;;45.47;;
10269;SDS011;70826;50.930;5.334;2024-02-23T06:06:08;47.70;;;45.10;;
10269;SDS011;70826;50.930;5.334;2024-02-23T06:08:35;49.38;;;46.80;;
10269;SDS011;70826;50.930;5.334;2024-02-23T06:11:01;45.67;;;43.28;;
10269;SDS011;70826;50.930;5.334;2024-02-23T06:13:28;46.85;;;44.38;;
10269;SDS011;70826;50.930;5.334;2024-02-23T06:15:57;47.70;;;45.20;;
10269;SDS011;70826;50.930;5.334;2024-02-23T06:18:23;47.72;;;45.28;;
10269;SDS011;70826;50.930;5.334;2024-02-23T06:20:49;45.83;;;43.42;;
10269;SDS011;70826;50.930;5.334;2024-02-23T06:23:19;48.38;;;45.83;;
10269;SDS011;70826;50.930;5.334;2024-02-23T06:25:49;48.22;;;45.72;;
10269;SDS011;70826;50.930;5.334;2024-02-23T06:28:17;46.90;;;44.40;;
10269;SDS011;70826;50.930;5.334;2024-02-23T06:30:45;50.00;;;47.40;;
10269;SDS011;70826;50.930;5.334;2024-02-23T06:33:11;49.67;;;47.08;;
10269;SDS011;70826;50.930;5.334;2024-02-23T06:35:41;49.42;;;46.65;;
10269;SDS011;70826;50.930;5.334;2024-02-23T06:38:09;46.88;;;44.40;;
10269;SDS011;70826;50.930;5.334;2024-02-23T06:40:42;52.13;;;49.38;;
10269;SDS011;70826;50.930;5.334;2024-02-23T06:43:10;51.08;;;48.38;;
10269;SDS011;70826;50.930;5.334;2024-02-23T06:45:40;50.40;;;47.75;;
10269;SDS011;70826;50.930;5.334;2024-02-23T06:48:11;50.55;;;47.83;;
10269;SDS011;70826;50.930;5.334;2024-02-23T06:50:41;50.13;;;47.53;;
10269;SDS011;70826;50.930;5.334;2024-02-23T06:53:11;49.97;;;47.30;;
10269;SDS011;70826;50.930;5.334;2024-02-23T06:55:39;51.75;;;48.97;;
10269;SDS011;70826;50.930;5.334;2024-02-23T06:58:09;50.65;;;47.88;;
10269;SDS011;70826;50.930;5.334;2024-02-23T07:00:37;51.33;;;48.58;;
10269;SDS011;70826;50.930;5.334;2024-02-23T07:03:08;53.05;;;50.13;;
10269;SDS011;70826;50.930;5.334;2024-02-23T07:05:33;51.13;;;48.45;;
10269;SDS011;70826;50.930;5.334;2024-02-23T07:08:04;48.20;;;45.67;;
10269;SDS011;70826;50.930;5.334;2024-02-23T07:10:35;52.83;;;49.95;;
10269;SDS011;70826;50.930;5.334;2024-02-23T07:13:03;48.88;;;46.28;;
10269;SDS011;70826;50.930;5.334;2024-02-23T07:15:32;52.40;;;49.65;;
10269;SDS011;70826;50.930;5.334;2024-02-23T07:18:00;52.70;;;49.90;;
10269;SDS011;70826;50.930;5.334;2024-02-23T07:20:26;52.85;;;50.00;;
10269;SDS011;70826;50.930;5.334;2024-02-23T07:22:56;54.10;;;51.25;;
10269;SDS011;70826;50.930;5.334;2024-02-23T07:25:26;52.47;;;49.75;;
10269;SDS011;70826;50.930;5.334;2024-02-23T07:27:55;52.92;;;50.10;;
10269;SDS011;70826;50.930;5.334;2024-02-23T07:30:20;52.00;;;49.20;;
10269;SDS011;70826;50.930;5.334;2024-02-23T07:32:48;53.45;;;50.55;;
10269;SDS011;70826;50.930;5.334;2024-02-23T07:35:14;52.28;;;49.35;;
10269;SDS011;70826;50.930;5.334;2024-02-23T07:37:44;53.42;;;50.65;;
10269;SDS011;70826;50.930;5.334;2024-02-23T07:40:15;53.60;;;50.70;;
10269;SDS011;70826;50.930;5.334;2024-02-23T07:42:43;54.60;;;51.70;;
10269;SDS011;70826;50.930;5.334;2024-02-23T07:45:13;52.40;;;49.47;;
10269;SDS011;70826;50.930;5.334;2024-02-23T07:47:39;53.30;;;50.42;;
10269;SDS011;70826;50.930;5.334;2024-02-23T07:50:07;55.08;;;52.03;;
10269;SDS011;70826;50.930;5.334;2024-02-23T07:52:35;52.80;;;50.00;;
10269;SDS011;70826;50.930;5.334;2024-02-23T07:55:03;55.22;;;52.10;;
10269;SDS011;70826;50.930;5.334;2024-02-23T07:57:34;54.17;;;51.35;;
10269;SDS011;70826;50.930;5.334;2024-02-23T08:00:04;51.67;;;48.92;;
10269;SDS011;70826;50.930;5.334;2024-02-23T08:02:33;51.15;;;48.45;;
10269;SDS011;70826;50.930;5.334;2024-02-23T08:05:01;53.80;;;50.95;;
10269;SDS011;70826;50.930;5.334;2024-02-23T08:07:27;52.65;;;49.92;;
10269;SDS011;70826;50.930;5.334;2024-02-23T08:09:58;52.00;;;49.28;;
10269;SDS011;70826;50.930;5.334;2024-02-23T08:12:24;55.05;;;51.70;;
10269;SDS011;70826;50.930;5.334;2024-02-23T08:14:49;56.83;;;53.50;;
10269;SDS011;70826;50.930;5.334;2024-02-23T08:17:18;12.30;;;11.18;;
10269;SDS011;70826;50.930;5.334;2024-02-23T08:19:46;6.85;;;6.22;;
10269;SDS011;70826;50.930;5.334;2024-02-23T08:22:12;11.10;;;10.02;;
10269;SDS011;70826;50.930;5.334;2024-02-23T08:24:42;15.55;;;14.32;;
10269;SDS011;70826;50.930;5.334;2024-02-23T08:27:10;18.27;;;17.13;;
10269;SDS011;70826;50.930;5.334;2024-02-23T08:29:39;29.42;;;27.63;;
10269;SDS011;70826;50.930;5.334;2024-02-23T08:32:08;26.95;;;25.25;;
10269;SDS011;70826;50.930;5.334;2024-02-23T08:34:37;13.65;;;12.63;;
10269;SDS011;70826;50.930;5.334;2024-02-23T08:37:03;9.02;;;7.72;;
10269;SDS011;70826;50.930;5.334;2024-02-23T08:39:32;15.75;;;14.55;;
10269;SDS011;70826;50.930;5.334;2024-02-23T08:42:02;17.65;;;16.50;;
10269;SDS011;70826;50.930;5.334;2024-02-23T08:44:34;22.60;;;21.20;;
10269;SDS011;70826;50.930;5.334;2024-02-23T08:47:08;34.75;;;32.40;;
10269;SDS011;70826;50.930;5.334;2024-02-23T08:49:34;36.83;;;34.30;;
10269;SDS011;70826;50.930;5.334;2024-02-23T08:52:01;27.15;;;24.80;;
10269;SDS011;70826;50.930;5.334;2024-02-23T08:54:30;29.70;;;27.95;;
10269;SDS011;70826;50.930;5.334;2024-02-23T08:56:55;29.35;;;27.23;;
10269;SDS011;70826;50.930;5.334;2024-02-23T08:59:21;32.88;;;30.42;;
10269;SDS011;70826;50.930;5.334;2024-02-23T09:01:49;34.90;;;32.40;;
10269;SDS011;70826;50.930;5.334;2024-02-23T09:04:17;35.28;;;32.75;;
10269;SDS011;70826;50.930;5.334;2024-02-23T09:06:42;34.53;;;32.50;;
10269;SDS011;70826;50.930;5.334;2024-02-23T09:09:08;38.55;;;36.00;;
10269;SDS011;70826;50.930;5.334;2024-02-23T09:11:36;41.88;;;38.83;;
10269;SDS011;70826;50.930;5.334;2024-02-23T09:14:02;43.33;;;40.63;;
10269;SDS011;70826;50.930;5.334;2024-02-23T09:16:30;42.60;;;40.05;;
10269;SDS011;70826;50.930;5.334;2024-02-23T09:18:56;43.35;;;40.95;;
10269;SDS011;70826;50.930;5.334;2024-02-23T09:21:22;42.45;;;39.80;;
10269;SDS011;70826;50.930;5.334;2024-02-23T09:23:47;45.10;;;42.60;;
10269;SDS011;70826;50.930;5.334;2024-02-23T09:26:15;43.20;;;40.60;;
10269;SDS011;70826;50.930;5.334;2024-02-23T09:28:41;41.22;;;38.55;;
10269;SDS011;70826;50.930;5.334;2024-02-23T09:31:14;44.13;;;41.35;;
10269;SDS011;70826;50.930;5.334;2024-02-23T09:33:45;48.00;;;45.15;;
10269;SDS011;70826;50.930;5.334;2024-02-23T09:36:15;39.40;;;36.95;;
10269;SDS011;70826;50.930;5.334;2024-02-23T09:38:46;45.72;;;43.17;;
10269;SDS011;70826;50.930;5.334;2024-02-23T09:41:24;48.65;;;45.70;;
10269;SDS011;70826;50.930;5.334;2024-02-23T09:43:52;45.90;;;43.25;;
10269;SDS011;70826;50.930;5.334;2024-02-23T09:46:21;53.80;;;50.75;;
10269;SDS011;70826;50.930;5.334;2024-02-23T09:48:50;51.35;;;48.30;;
10269;SDS011;70826;50.930;5.334;2024-02-23T09:51:18;51.15;;;48.10;;
10269;SDS011;70826;50.930;5.334;2024-02-23T09:53:50;54.88;;;51.72;;
10269;SDS011;70826;50.930;5.334;2024-02-23T09:56:21;58.38;;;55.08;;
10269;SDS011;70826;50.930;5.334;2024-02-23T09:58:59;56.80;;;53.47;;
10269;SDS011;70826;50.930;5.334;2024-02-23T10:01:30;57.13;;;53.97;;
10269;SDS011;70826;50.930;5.334;2024-02-23T10:03:57;56.53;;;53.30;;
10269;SDS011;70826;50.930;5.334;2024-02-23T10:06:32;57.33;;;54.10;;
10269;SDS011;70826;50.930;5.334;2024-02-23T10:08:58;57.15;;;53.80;;
10269;SDS011;70826;50.930;5.334;2024-02-23T10:11:23;53.33;;;50.28;;
10269;SDS011;70826;50.930;5.334;2024-02-23T10:13:51;54.53;;;51.33;;
10269;SDS011;70826;50.930;5.334;2024-02-23T10:16:20;53.80;;;50.65;;
10269;SDS011;70826;50.930;5.334;2024-02-23T10:18:47;48.83;;;46.17;;
10269;SDS011;70826;50.930;5.334;2024-02-23T10:21:15;46.50;;;43.75;;
10269;SDS011;70826;50.930;5.334;2024-02-23T10:23:41;41.05;;;38.80;;
10269;SDS011;70826;50.930;5.334;2024-02-23T10:26:09;37.33;;;35.15;;
10269;SDS011;70826;50.930;5.334;2024-02-23T10:28:37;35.35;;;33.45;;
10269;SDS011;70826;50.930;5.334;2024-02-23T10:31:08;35.67;;;33.67;;
10269;SDS011;70826;50.930;5.334;2024-02-23T10:33:37;31.90;;;30.13;;
10269;SDS011;70826;50.930;5.334;2024-02-23T10:36:12;31.90;;;30.20;;
10269;SDS011;70826;50.930;5.334;2024-02-23T10:38:47;31.83;;;30.02;;
10269;SDS011;70826;50.930;5.334;2024-02-23T10:41:18;26.38;;;24.92;;
10269;SDS011;70826;50.930;5.334;2024-02-23T10:43:44;24.20;;;22.77;;
10269;SDS011;70826;50.930;5.334;2024-02-23T10:46:13;24.33;;;23.02;;
10269;SDS011;70826;50.930;5.334;2024-02-23T10:48:43;25.80;;;24.45;;
10269;SDS011;70826;50.930;5.334;2024-02-23T10:51:14;23.33;;;21.95;;
10269;SDS011;70826;50.930;5.334;2024-02-23T10:53:40;25.08;;;23.80;;
10269;SDS011;70826;50.930;5.334;2024-02-23T10:56:06;25.05;;;23.65;;
10269;SDS011;70826;50.930;5.334;2024-02-23T10:58:37;25.13;;;23.80;;
10269;SDS011;70826;50.930;5.334;2024-02-23T11:01:06;26.77;;;25.25;;
10269;SDS011;70826;50.930;5.334;2024-02-23T11:03:34;25.92;;;24.63;;
10269;SDS011;70826;50.930;5.334;2024-02-23T11:06:06;26.77;;;25.15;;
10269;SDS011;70826;50.930;5.334;2024-02-23T11:08:32;26.73;;;25.33;;
10269;SDS011;70826;50.930;5.334;2024-02-23T11:11:09;28.48;;;26.77;;
10269;SDS011;70826;50.930;5.334;2024-02-23T11:13:39;26.15;;;24.65;;
10269;SDS011;70826;50.930;5.334;2024-02-23T11:16:06;27.95;;;26.48;;
10269;SDS011;70826;50.930;5.334;2024-02-23T11:18:34;26.58;;;25.13;;
10269;SDS011;70826;50.930;5.334;2024-02-23T11:21:01;28.65;;;27.00;;
10269;SDS011;70826;50.930;5.334;2024-02-23T11:23:47;27.45;;;26.08;;
10269;SDS011;70826;50.930;5.334;2024-02-23T11:26:17;26.17;;;24.83;;
10269;SDS011;70826;50.930;5.334;2024-02-23T11:28:49;26.80;;;25.30;;
10269;SDS011;70826;50.930;5.334;2024-02-23T11:31:21;11.45;;;10.65;;
10269;SDS011;70826;50.930;5.334;2024-02-23T11:33:51;9.98;;;9.45;;
10269;SDS011;70826;50.930;5.334;2024-02-23T11:36:23;15.02;;;14.23;;
10269;SDS011;70826;50.930;5.334;2024-02-23T11:38:57;14.20;;;13.27;;
10269;SDS011;70826;50.930;5.334;2024-02-23T11:41:24;17.80;;;16.85;;
10269;SDS011;70826;50.930;5.334;2024-02-23T11:43:51;19.15;;;17.95;;
10269;SDS011;70826;50.930;5.334;2024-02-23T11:46:18;20.13;;;18.98;;
10269;SDS011;70826;50.930;5.334;2024-02-23T11:48:44;20.73;;;19.52;;
10269;SDS011;70826;50.930;5.334;2024-02-23T11:51:18;22.52;;;21.35;;
10269;SDS011;70826;50.930;5.334;2024-02-23T11:53:48;21.77;;;20.48;;
10269;SDS011;70826;50.930;5.334;2024-02-23T11:56:14;23.55;;;22.25;;
10269;SDS011;70826;50.930;5.334;2024-02-23T11:58:40;24.42;;;23.17;;
10269;SDS011;70826;50.930;5.334;2024-02-23T12:01:07;26.05;;;24.60;;
10269;SDS011;70826;50.930;5.334;2024-02-23T12:03:32;27.60;;;26.17;;
10269;SDS011;70826;50.930;5.334;2024-02-23T12:06:02;26.20;;;24.88;;
10269;SDS011;70826;50.930;5.334;2024-02-23T12:08:29;29.02;;;27.42;;
10269;SDS011;70826;50.930;5.334;2024-02-23T12:11:02;30.35;;;28.73;;
10269;SDS011;70826;50.930;5.334;2024-02-23T12:13:28;32.53;;;30.88;;
10269;SDS011;70826;50.930;5.334;2024-02-23T12:15:54;34.03;;;32.20;;
10269;SDS011;70826;50.930;5.334;2024-02-23T12:18:24;35.10;;;33.17;;
10269;SDS011;70826;50.930;5.334;2024-02-23T12:20:58;34.63;;;32.83;;
10269;SDS011;70826;50.930;5.334;2024-02-23T12:23:26;38.53;;;36.38;;
10269;SDS011;70826;50.930;5.334;2024-02-23T12:25:56;38.40;;;36.33;;
10269;SDS011;70826;50.930;5.334;2024-02-23T12:28:22;39.17;;;36.95;;
10269;SDS011;70826;50.930;5.334;2024-02-23T12:31:01;37.67;;;35.67;;
10269;SDS011;70826;50.930;5.334;2024-02-23T12:33:28;41.88;;;39.63;;
10269;SDS011;70826;50.930;5.334;2024-02-23T12:35:55;35.85;;;34.00;;
10269;SDS011;70826;50.930;5.334;2024-02-23T12:38:23;40.97;;;38.75;;
10269;SDS011;70826;50.930;5.334;2024-02-23T12:40:50;43.72;;;41.35;;
10269;SDS011;70826;50.930;5.334;2024-02-23T12:43:16;42.35;;;39.95;;
10269;SDS011;70826;50.930;5.334;2024-02-23T12:45:42;48.08;;;45.42;;
10269;SDS011;70826;50.930;5.334;2024-02-23T12:48:14;46.90;;;44.35;;
10269;SDS011;70826;50.930;5.334;2024-02-23T12:50:43;47.42;;;44.85;;
10269;SDS011;70826;50.930;5.334;2024-02-23T12:56:02;48.28;;;45.67;;
10269;SDS011;70826;50.930;5.334;2024-02-23T12:58:28;46.47;;;43.95;;
10269;SDS011;70826;50.930;5.334;2024-02-23T13:00:55;45.95;;;43.47;;
10269;SDS011;70826;50.930;5.334;2024-02-23T13:03:23;45.78;;;43.28;;
10269;SDS011;70826;50.930;5.334;2024-02-23T13:05:55;47.70;;;45.17;;
10269;SDS011;70826;50.930;5.334;2024-02-23T13:08:22;45.03;;;42.63;;
10269;SDS011;70826;50.930;5.334;2024-02-23T13:10:51;43.55;;;41.35;;
10269;SDS011;70826;50.930;5.334;2024-02-23T13:13:18;41.65;;;39.47;;
10269;SDS011;70826;50.930;5.334;2024-02-23T13:15:45;40.92;;;38.78;;
10269;SDS011;70826;50.930;5.334;2024-02-23T13:18:14;39.67;;;37.65;;
10269;SDS011;70826;50.930;5.334;2024-02-23T13:20:40;37.70;;;35.80;;
10269;SDS011;70826;50.930;5.334;2024-02-23T13:23:12;35.20;;;33.38;;
10269;SDS011;70826;50.930;5.334;2024-02-23T13:25:38;35.67;;;33.88;;
10269;SDS011;70826;50.930;5.334;2024-02-23T13:28:04;35.40;;;33.53;;
10269;SDS011;70826;50.930;5.334;2024-02-23T13:30:34;34.80;;;33.00;;
10269;SDS011;70826;50.930;5.334;2024-02-23T13:33:00;34.95;;;33.17;;
10269;SDS011;70826;50.930;5.334;2024-02-23T13:35:26;35.47;;;33.63;;
10269;SDS011;70826;50.930;5.334;2024-02-23T13:37:52;34.38;;;32.55;;
10269;SDS011;70826;50.930;5.334;2024-02-23T13:40:21;34.92;;;32.95;;
10269;SDS011;70826;50.930;5.334;2024-02-23T13:42:47;36.47;;;34.50;;
10269;SDS011;70826;50.930;5.334;2024-02-23T13:45:15;39.25;;;36.90;;
10269;SDS011;70826;50.930;5.334;2024-02-23T13:47:42;38.30;;;36.28;;
10269;SDS011;70826;50.930;5.334;2024-02-23T13:50:10;39.15;;;37.00;;
10269;SDS011;70826;50.930;5.334;2024-02-23T13:52:41;36.97;;;34.58;;
10269;SDS011;70826;50.930;5.334;2024-02-23T13:55:11;38.40;;;36.40;;
10269;SDS011;70826;50.930;5.334;2024-02-23T13:57:39;40.78;;;38.28;;
10269;SDS011;70826;50.930;5.334;2024-02-23T14:00:05;41.55;;;39.33;;
10269;SDS011;70826;50.930;5.334;2024-02-23T14:02:38;46.45;;;43.95;;
10269;SDS011;70826;50.930;5.334;2024-02-23T14:05:07;41.00;;;38.72;;
10269;SDS011;70826;50.930;5.334;2024-02-23T14:07:35;39.10;;;36.88;;
10269;SDS011;70826;50.930;5.334;2024-02-23T14:10:03;36.53;;;34.33;;
10269;SDS011;70826;50.930;5.334;2024-02-23T14:12:29;34.65;;;32.60;;
10269;SDS011;70826;50.930;5.334;2024-02-23T14:14:57;32.80;;;31.08;;
10269;SDS011;70826;50.930;5.334;2024-02-23T14:17:23;35.50;;;33.70;;
10269;SDS011;70826;50.930;5.334;2024-02-23T14:19:51;35.63;;;33.75;;
10269;SDS011;70826;50.930;5.334;2024-02-23T14:22:17;33.55;;;31.80;;
10269;SDS011;70826;50.930;5.334;2024-02-23T14:24:42;32.20;;;30.52;;